sensor_id;sensor_type;location;lat;lon;timestamp;P1;durP1;ratioP1;P2;durP2;ratioP2
1603;SDS011;795;49.296;11.348;2023-06-10T00:02:21;6.33;;;5.73;;
1603;SDS011;795;49.296;11.348;2023-06-10T00:04:48;6.97;;;6.30;;
1603;SDS011;795;49.296;11.348;2023-06-10T00:07:16;6.87;;;6.17;;
1603;SDS011;795;49.296;11.348;2023-06-10T00:09:43;7.00;;;6.30;;
1603;SDS011;795;49.296;11.348;2023-06-10T00:12:10;7.00;;;6.20;;
1603;SDS011;795;49.296;11.348;2023-06-10T00:14:38;7.20;;;6.10;;
1603;SDS011;795;49.296;11.348;2023-06-10T00:17:09;6.47;;;5.90;;
1603;SDS011;795;49.296;11.348;2023-06-10T00:19:36;5.70;;;5.30;;
1603;SDS011;795;49.296;11.348;2023-06-10T00:22:07;6.60;;;6.00;;
1603;SDS011;795;49.296;11.348;2023-06-10T00:24:37;9.03;;;6.60;;
1603;SDS011;795;49.296;11.348;2023-06-10T00:27:04;6.10;;;5.60;;
1603;SDS011;795;49.296;11.348;2023-06-10T00:29:33;6.43;;;5.80;;
1603;SDS011;795;49.296;11.348;2023-06-10T00:32:00;6.80;;;6.20;;
1603;SDS011;795;49.296;11.348;2023-06-10T00:34:27;6.77;;;6.07;;
1603;SDS011;795;49.296;11.348;2023-06-10T00:36:54;6.47;;;5.93;;
1603;SDS011;795;49.296;11.348;2023-06-10T00:39:21;6.50;;;5.90;;
1603;SDS011;795;49.296;11.348;2023-06-10T00:41:48;7.30;;;6.60;;
1603;SDS011;795;49.296;11.348;2023-06-10T00:44:16;6.37;;;5.87;;
1603;SDS011;795;49.296;11.348;2023-06-10T00:46:43;6.13;;;5.63;;
1603;SDS011;795;49.296;11.348;2023-06-10T00:49:10;6.90;;;6.20;;
1603;SDS011;795;49.296;11.348;2023-06-10T00:51:38;5.70;;;5.20;;
1603;SDS011;795;49.296;11.348;2023-06-10T00:54:06;6.23;;;5.70;;
1603;SDS011;795;49.296;11.348;2023-06-10T00:56:34;6.67;;;6.17;;
1603;SDS011;795;49.296;11.348;2023-06-10T00:59:02;6.10;;;5.60;;
1603;SDS011;795;49.296;11.348;2023-06-10T01:01:29;6.53;;;5.90;;
1603;SDS011;795;49.296;11.348;2023-06-10T01:03:58;8.07;;;7.37;;
1603;SDS011;795;49.296;11.348;2023-06-10T01:12:17;7.30;;;6.70;;
1603;SDS011;795;49.296;11.348;2023-06-10T01:15:00;7.70;;;7.10;;
1603;SDS011;795;49.296;11.348;2023-06-10T01:17:28;6.93;;;6.30;;
1603;SDS011;795;49.296;11.348;2023-06-10T01:19:56;6.90;;;6.30;;
1603;SDS011;795;49.296;11.348;2023-06-10T01:22:27;6.27;;;5.77;;
1603;SDS011;795;49.296;11.348;2023-06-10T01:24:55;6.50;;;5.90;;
1603;SDS011;795;49.296;11.348;2023-06-10T01:27:29;6.37;;;5.77;;
1603;SDS011;795;49.296;11.348;2023-06-10T01:30:16;6.40;;;5.67;;
1603;SDS011;795;49.296;11.348;2023-06-10T01:32:51;8.03;;;7.33;;
1603;SDS011;795;49.296;11.348;2023-06-10T01:35:20;7.70;;;7.00;;
1603;SDS011;795;49.296;11.348;2023-06-10T01:37:55;7.53;;;6.83;;
1603;SDS011;795;49.296;11.348;2023-06-10T01:40:27;8.20;;;7.50;;
1603;SDS011;795;49.296;11.348;2023-06-10T01:42:57;9.30;;;8.40;;
1603;SDS011;795;49.296;11.348;2023-06-10T01:45:24;8.90;;;8.10;;
1603;SDS011;795;49.296;11.348;2023-06-10T01:47:51;8.03;;;7.33;;
1603;SDS011;795;49.296;11.348;2023-06-10T01:50:18;8.83;;;8.03;;
1603;SDS011;795;49.296;11.348;2023-06-10T01:52:45;9.37;;;7.47;;
1603;SDS011;795;49.296;11.348;2023-06-10T01:55:12;8.37;;;7.60;;
1603;SDS011;795;49.296;11.348;2023-06-10T01:57:39;9.90;;;8.90;;
1603;SDS011;795;49.296;11.348;2023-06-10T02:00:07;8.33;;;7.57;;
1603;SDS011;795;49.296;11.348;2023-06-10T02:02:36;8.67;;;7.10;;
1603;SDS011;795;49.296;11.348;2023-06-10T02:05:03;8.77;;;7.97;;
1603;SDS011;795;49.296;11.348;2023-06-10T02:07:31;9.03;;;6.60;;
1603;SDS011;795;49.296;11.348;2023-06-10T02:09:58;8.23;;;7.50;;
1603;SDS011;795;49.296;11.348;2023-06-10T02:12:27;11.13;;;7.90;;
1603;SDS011;795;49.296;11.348;2023-06-10T02:14:54;8.20;;;7.50;;
1603;SDS011;795;49.296;11.348;2023-06-10T02:17:21;8.90;;;8.20;;
1603;SDS011;795;49.296;11.348;2023-06-10T02:19:49;9.10;;;8.20;;
1603;SDS011;795;49.296;11.348;2023-06-10T02:22:21;7.90;;;6.93;;
1603;SDS011;795;49.296;11.348;2023-06-10T02:24:49;9.13;;;8.33;;
1603;SDS011;795;49.296;11.348;2023-06-10T02:27:17;9.80;;;7.47;;
1603;SDS011;795;49.296;11.348;2023-06-10T02:29:44;7.73;;;6.77;;
1603;SDS011;795;49.296;11.348;2023-06-10T02:32:11;9.00;;;8.20;;
1603;SDS011;795;49.296;11.348;2023-06-10T02:34:38;8.87;;;7.63;;
1603;SDS011;795;49.296;11.348;2023-06-10T02:37:05;8.90;;;8.10;;
1603;SDS011;795;49.296;11.348;2023-06-10T02:39:32;7.90;;;7.10;;
1603;SDS011;795;49.296;11.348;2023-06-10T02:42:00;7.07;;;6.47;;
1603;SDS011;795;49.296;11.348;2023-06-10T02:44:27;7.73;;;7.07;;
1603;SDS011;795;49.296;11.348;2023-06-10T02:46:54;8.37;;;7.53;;
1603;SDS011;795;49.296;11.348;2023-06-10T02:49:21;7.60;;;6.53;;
1603;SDS011;795;49.296;11.348;2023-06-10T02:51:49;8.60;;;7.90;;
1603;SDS011;795;49.296;11.348;2023-06-10T02:54:20;7.63;;;6.83;;
1603;SDS011;795;49.296;11.348;2023-06-10T02:56:47;7.87;;;7.20;;
1603;SDS011;795;49.296;11.348;2023-06-10T02:59:14;8.00;;;7.30;;
1603;SDS011;795;49.296;11.348;2023-06-10T03:01:42;7.60;;;7.00;;
1603;SDS011;795;49.296;11.348;2023-06-10T03:04:09;8.20;;;7.50;;
1603;SDS011;795;49.296;11.348;2023-06-10T03:06:40;9.87;;;8.27;;
1603;SDS011;795;49.296;11.348;2023-06-10T03:09:07;8.50;;;7.63;;
1603;SDS011;795;49.296;11.348;2023-06-10T03:11:34;9.50;;;8.60;;
1603;SDS011;795;49.296;11.348;2023-06-10T03:14:01;9.00;;;7.80;;
1603;SDS011;795;49.296;11.348;2023-06-10T03:16:29;8.97;;;8.13;;
1603;SDS011;795;49.296;11.348;2023-06-10T03:18:57;8.73;;;7.90;;
1603;SDS011;795;49.296;11.348;2023-06-10T03:21:24;9.77;;;8.90;;
1603;SDS011;795;49.296;11.348;2023-06-10T03:23:53;8.93;;;8.13;;
1603;SDS011;795;49.296;11.348;2023-06-10T03:26:20;8.80;;;8.00;;
1603;SDS011;795;49.296;11.348;2023-06-10T03:28:47;9.33;;;8.33;;
1603;SDS011;795;49.296;11.348;2023-06-10T03:31:16;8.33;;;7.63;;
1603;SDS011;795;49.296;11.348;2023-06-10T03:33:43;7.83;;;7.13;;
1603;SDS011;795;49.296;11.348;2023-06-10T03:36:10;8.97;;;8.07;;
1603;SDS011;795;49.296;11.348;2023-06-10T03:38:37;9.03;;;7.50;;
1603;SDS011;795;49.296;11.348;2023-06-10T03:41:04;9.13;;;7.90;;
1603;SDS011;795;49.296;11.348;2023-06-10T03:43:31;9.07;;;8.13;;
1603;SDS011;795;49.296;11.348;2023-06-10T03:45:58;8.50;;;7.80;;
1603;SDS011;795;49.296;11.348;2023-06-10T03:48:25;8.10;;;7.30;;
1603;SDS011;795;49.296;11.348;2023-06-10T03:50:52;8.10;;;7.37;;
1603;SDS011;795;49.296;11.348;2023-06-10T03:53:19;9.37;;;8.40;;
1603;SDS011;795;49.296;11.348;2023-06-10T03:55:46;8.40;;;7.60;;
1603;SDS011;795;49.296;11.348;2023-06-10T03:58:14;10.40;;;8.30;;
1603;SDS011;795;49.296;11.348;2023-06-10T04:00:41;8.43;;;7.73;;
1603;SDS011;795;49.296;11.348;2023-06-10T04:03:08;9.33;;;8.43;;
1603;SDS011;795;49.296;11.348;2023-06-10T04:05:40;8.60;;;7.70;;
1603;SDS011;795;49.296;11.348;2023-06-10T04:08:08;9.13;;;8.30;;
1603;SDS011;795;49.296;11.348;2023-06-10T04:10:35;9.40;;;8.50;;
1603;SDS011;795;49.296;11.348;2023-06-10T04:13:02;7.77;;;7.17;;
1603;SDS011;795;49.296;11.348;2023-06-10T04:15:29;10.43;;;9.33;;
1603;SDS011;795;49.296;11.348;2023-06-10T04:17:59;10.17;;;8.90;;
1603;SDS011;795;49.296;11.348;2023-06-10T04:20:27;9.27;;;8.40;;
1603;SDS011;795;49.296;11.348;2023-06-10T04:22:54;11.80;;;8.17;;
1603;SDS011;795;49.296;11.348;2023-06-10T04:25:21;10.47;;;9.37;;
1603;SDS011;795;49.296;11.348;2023-06-10T04:27:49;10.03;;;9.20;;
1603;SDS011;795;49.296;11.348;2023-06-10T04:30:16;11.13;;;10.17;;
1603;SDS011;795;49.296;11.348;2023-06-10T04:32:44;11.67;;;10.50;;
1603;SDS011;795;49.296;11.348;2023-06-10T04:35:11;9.27;;;8.37;;
1603;SDS011;795;49.296;11.348;2023-06-10T04:37:42;9.90;;;9.00;;
1603;SDS011;795;49.296;11.348;2023-06-10T04:40:09;10.50;;;9.53;;
1603;SDS011;795;49.296;11.348;2023-06-10T04:42:37;11.80;;;9.90;;
1603;SDS011;795;49.296;11.348;2023-06-10T04:45:04;9.50;;;8.67;;
1603;SDS011;795;49.296;11.348;2023-06-10T04:47:33;9.33;;;8.53;;
1603;SDS011;795;49.296;11.348;2023-06-10T04:50:00;9.10;;;8.30;;
1603;SDS011;795;49.296;11.348;2023-06-10T04:52:29;8.43;;;7.73;;
1603;SDS011;795;49.296;11.348;2023-06-10T04:54:57;9.47;;;8.67;;
1603;SDS011;795;49.296;11.348;2023-06-10T04:57:24;9.10;;;8.30;;
1603;SDS011;795;49.296;11.348;2023-06-10T04:59:52;8.67;;;7.97;;
1603;SDS011;795;49.296;11.348;2023-06-10T05:02:19;10.97;;;8.30;;
1603;SDS011;795;49.296;11.348;2023-06-10T05:04:47;8.03;;;7.33;;
1603;SDS011;795;49.296;11.348;2023-06-10T05:07:14;7.70;;;7.10;;
1603;SDS011;795;49.296;11.348;2023-06-10T05:09:41;9.10;;;8.40;;
1603;SDS011;795;49.296;11.348;2023-06-10T05:12:08;7.40;;;6.73;;
1603;SDS011;795;49.296;11.348;2023-06-10T05:14:35;7.70;;;6.90;;
1603;SDS011;795;49.296;11.348;2023-06-10T05:17:04;8.20;;;7.40;;
1603;SDS011;795;49.296;11.348;2023-06-10T05:19:32;8.03;;;7.33;;
1603;SDS011;795;49.296;11.348;2023-06-10T05:21:59;7.77;;;7.07;;
1603;SDS011;795;49.296;11.348;2023-06-10T05:24:26;8.33;;;7.63;;
1603;SDS011;795;49.296;11.348;2023-06-10T05:26:53;8.27;;;7.57;;
1603;SDS011;795;49.296;11.348;2023-06-10T05:29:20;7.33;;;6.30;;
1603;SDS011;795;49.296;11.348;2023-06-10T05:31:47;7.40;;;6.80;;
1603;SDS011;795;49.296;11.348;2023-06-10T05:34:14;8.27;;;7.47;;
1603;SDS011;795;49.296;11.348;2023-06-10T05:36:41;7.33;;;6.63;;
1603;SDS011;795;49.296;11.348;2023-06-10T05:39:09;6.80;;;6.20;;
1603;SDS011;795;49.296;11.348;2023-06-10T05:41:36;7.10;;;6.53;;
1603;SDS011;795;49.296;11.348;2023-06-10T05:44:03;7.10;;;6.40;;
1603;SDS011;795;49.296;11.348;2023-06-10T05:46:30;6.87;;;6.37;;
1603;SDS011;795;49.296;11.348;2023-06-10T05:48:58;6.80;;;6.20;;
1603;SDS011;795;49.296;11.348;2023-06-10T05:51:25;6.20;;;5.60;;
1603;SDS011;795;49.296;11.348;2023-06-10T05:53:52;6.10;;;5.70;;
1603;SDS011;795;49.296;11.348;2023-06-10T05:56:19;7.43;;;6.57;;
1603;SDS011;795;49.296;11.348;2023-06-10T05:58:48;6.00;;;5.50;;
1603;SDS011;795;49.296;11.348;2023-06-10T06:01:15;5.90;;;5.50;;
1603;SDS011;795;49.296;11.348;2023-06-10T06:03:43;6.37;;;5.60;;
1603;SDS011;795;49.296;11.348;2023-06-10T06:06:10;6.07;;;5.57;;
1603;SDS011;795;49.296;11.348;2023-06-10T06:08:37;6.30;;;5.77;;
1603;SDS011;795;49.296;11.348;2023-06-10T06:11:04;5.80;;;5.30;;
1603;SDS011;795;49.296;11.348;2023-06-10T06:13:31;5.83;;;5.33;;
1603;SDS011;795;49.296;11.348;2023-06-10T06:15:58;6.30;;;5.70;;
1603;SDS011;795;49.296;11.348;2023-06-10T06:18:25;5.73;;;5.23;;
1603;SDS011;795;49.296;11.348;2023-06-10T06:20:52;5.73;;;5.30;;
1603;SDS011;795;49.296;11.348;2023-06-10T06:23:19;6.40;;;5.90;;
1603;SDS011;795;49.296;11.348;2023-06-10T06:25:46;5.73;;;5.33;;
1603;SDS011;795;49.296;11.348;2023-06-10T06:28:13;5.63;;;5.23;;
1603;SDS011;795;49.296;11.348;2023-06-10T06:30:44;6.20;;;5.60;;
1603;SDS011;795;49.296;11.348;2023-06-10T06:33:11;6.60;;;6.10;;
1603;SDS011;795;49.296;11.348;2023-06-10T06:35:39;5.10;;;4.80;;
1603;SDS011;795;49.296;11.348;2023-06-10T06:38:06;5.37;;;4.87;;
1603;SDS011;795;49.296;11.348;2023-06-10T06:40:33;5.10;;;4.80;;
1603;SDS011;795;49.296;11.348;2023-06-10T06:43:00;6.03;;;5.53;;
1603;SDS011;795;49.296;11.348;2023-06-10T06:45:27;5.60;;;5.20;;
1603;SDS011;795;49.296;11.348;2023-06-10T06:47:54;4.90;;;4.50;;
1603;SDS011;795;49.296;11.348;2023-06-10T06:50:22;7.43;;;5.73;;
1603;SDS011;795;49.296;11.348;2023-06-10T06:52:49;7.63;;;5.00;;
1603;SDS011;795;49.296;11.348;2023-06-10T06:55:16;7.27;;;6.50;;
1603;SDS011;795;49.296;11.348;2023-06-10T06:57:43;5.60;;;5.17;;
1603;SDS011;795;49.296;11.348;2023-06-10T07:00:10;5.73;;;5.33;;
1603;SDS011;795;49.296;11.348;2023-06-10T07:02:37;6.37;;;5.77;;
1603;SDS011;795;49.296;11.348;2023-06-10T07:05:05;5.97;;;5.57;;
1603;SDS011;795;49.296;11.348;2023-06-10T07:07:32;6.40;;;5.90;;
1603;SDS011;795;49.296;11.348;2023-06-10T07:09:59;5.87;;;5.37;;
1603;SDS011;795;49.296;11.348;2023-06-10T07:12:26;6.70;;;6.20;;
1603;SDS011;795;49.296;11.348;2023-06-10T07:14:53;6.50;;;5.90;;
1603;SDS011;795;49.296;11.348;2023-06-10T07:17:20;5.53;;;5.13;;
1603;SDS011;795;49.296;11.348;2023-06-10T07:19:47;5.60;;;5.20;;
1603;SDS011;795;49.296;11.348;2023-06-10T07:22:14;6.30;;;5.87;;
1603;SDS011;795;49.296;11.348;2023-06-10T07:24:41;6.00;;;5.60;;
1603;SDS011;795;49.296;11.348;2023-06-10T07:27:08;5.90;;;5.50;;
1603;SDS011;795;49.296;11.348;2023-06-10T07:29:36;6.23;;;5.73;;
1603;SDS011;795;49.296;11.348;2023-06-10T07:32:03;5.80;;;5.30;;
1603;SDS011;795;49.296;11.348;2023-06-10T07:34:31;6.70;;;6.20;;
1603;SDS011;795;49.296;11.348;2023-06-10T07:36:58;6.20;;;5.80;;
1603;SDS011;795;49.296;11.348;2023-06-10T07:39:25;6.17;;;5.67;;
1603;SDS011;795;49.296;11.348;2023-06-10T07:41:52;6.57;;;5.97;;
1603;SDS011;795;49.296;11.348;2023-06-10T07:44:20;6.50;;;5.90;;
1603;SDS011;795;49.296;11.348;2023-06-10T07:46:48;6.70;;;6.10;;
1603;SDS011;795;49.296;11.348;2023-06-10T07:49:15;5.90;;;5.30;;
1603;SDS011;795;49.296;11.348;2023-06-10T07:51:42;5.00;;;4.60;;
1603;SDS011;795;49.296;11.348;2023-06-10T07:54:09;5.70;;;5.20;;
1603;SDS011;795;49.296;11.348;2023-06-10T07:56:39;5.10;;;4.70;;
1603;SDS011;795;49.296;11.348;2023-06-10T07:59:08;5.93;;;5.53;;
1603;SDS011;795;49.296;11.348;2023-06-10T08:03:36;4.83;;;4.47;;
1603;SDS011;795;49.296;11.348;2023-06-10T08:06:03;4.93;;;4.60;;
1603;SDS011;795;49.296;11.348;2023-06-10T08:08:31;5.23;;;4.73;;
1603;SDS011;795;49.296;11.348;2023-06-10T08:10:58;5.30;;;4.90;;
1603;SDS011;795;49.296;11.348;2023-06-10T08:13:25;5.30;;;4.93;;
1603;SDS011;795;49.296;11.348;2023-06-10T08:15:52;5.93;;;5.33;;
1603;SDS011;795;49.296;11.348;2023-06-10T08:18:21;4.90;;;3.80;;
1603;SDS011;795;49.296;11.348;2023-06-10T08:20:48;5.13;;;4.63;;
1603;SDS011;795;49.296;11.348;2023-06-10T08:23:15;5.73;;;5.30;;
1603;SDS011;795;49.296;11.348;2023-06-10T08:25:42;6.63;;;6.07;;
1603;SDS011;795;49.296;11.348;2023-06-10T08:28:09;5.53;;;4.93;;
1603;SDS011;795;49.296;11.348;2023-06-10T08:30:36;5.93;;;5.50;;
1603;SDS011;795;49.296;11.348;2023-06-10T08:33:03;6.27;;;5.77;;
1603;SDS011;795;49.296;11.348;2023-06-10T08:35:30;5.60;;;5.10;;
1603;SDS011;795;49.296;11.348;2023-06-10T08:37:57;5.37;;;4.97;;
1603;SDS011;795;49.296;11.348;2023-06-10T08:40:24;5.93;;;5.53;;
1603;SDS011;795;49.296;11.348;2023-06-10T08:45:37;4.87;;;4.57;;
1603;SDS011;795;49.296;11.348;2023-06-10T08:48:08;4.30;;;4.00;;
1603;SDS011;795;49.296;11.348;2023-06-10T08:50:39;5.77;;;5.37;;
1603;SDS011;795;49.296;11.348;2023-06-10T08:53:07;5.30;;;4.90;;
1603;SDS011;795;49.296;11.348;2023-06-10T08:55:43;5.30;;;4.90;;
1603;SDS011;795;49.296;11.348;2023-06-10T08:58:18;5.53;;;5.13;;
1603;SDS011;795;49.296;11.348;2023-06-10T09:00:46;5.67;;;5.27;;
1603;SDS011;795;49.296;11.348;2023-06-10T09:03:14;5.27;;;4.87;;
1603;SDS011;795;49.296;11.348;2023-06-10T09:05:41;5.10;;;4.80;;
1603;SDS011;795;49.296;11.348;2023-06-10T09:08:11;6.50;;;6.10;;
1603;SDS011;795;49.296;11.348;2023-06-10T09:10:40;7.17;;;6.67;;
1603;SDS011;795;49.296;11.348;2023-06-10T09:13:07;5.60;;;5.17;;
1603;SDS011;795;49.296;11.348;2023-06-10T09:15:34;5.53;;;5.03;;
1603;SDS011;795;49.296;11.348;2023-06-10T09:18:01;5.97;;;5.57;;
1603;SDS011;795;49.296;11.348;2023-06-10T09:20:31;6.03;;;5.53;;
1603;SDS011;795;49.296;11.348;2023-06-10T09:22:59;6.23;;;5.73;;
1603;SDS011;795;49.296;11.348;2023-06-10T09:28:25;5.67;;;5.27;;
1603;SDS011;795;49.296;11.348;2023-06-10T09:31:05;6.27;;;5.87;;
1603;SDS011;795;49.296;11.348;2023-06-10T09:33:39;5.23;;;4.83;;
1603;SDS011;795;49.296;11.348;2023-06-10T09:36:06;6.17;;;5.70;;
1603;SDS011;795;49.296;11.348;2023-06-10T09:38:34;5.90;;;5.40;;
1603;SDS011;795;49.296;11.348;2023-06-10T09:41:02;6.23;;;5.83;;
1603;SDS011;795;49.296;11.348;2023-06-10T09:43:40;6.03;;;5.53;;
1603;SDS011;795;49.296;11.348;2023-06-10T09:46:19;6.17;;;5.67;;
1603;SDS011;795;49.296;11.348;2023-06-10T09:48:47;6.83;;;6.33;;
1603;SDS011;795;49.296;11.348;2023-06-10T09:51:15;5.73;;;5.23;;
1603;SDS011;795;49.296;11.348;2023-06-10T09:53:48;6.87;;;6.37;;
1603;SDS011;795;49.296;11.348;2023-06-10T09:56:18;7.90;;;5.77;;
1603;SDS011;795;49.296;11.348;2023-06-10T09:58:46;5.63;;;5.13;;
1603;SDS011;795;49.296;11.348;2023-06-10T10:01:14;6.50;;;6.00;;
1603;SDS011;795;49.296;11.348;2023-06-10T10:03:46;5.63;;;5.23;;
1603;SDS011;795;49.296;11.348;2023-06-10T10:06:17;6.40;;;5.90;;
1603;SDS011;795;49.296;11.348;2023-06-10T10:08:47;6.50;;;5.93;;
1603;SDS011;795;49.296;11.348;2023-06-10T10:11:17;6.67;;;6.07;;
1603;SDS011;795;49.296;11.348;2023-06-10T10:13:50;7.43;;;6.17;;
1603;SDS011;795;49.296;11.348;2023-06-10T10:16:30;6.00;;;5.57;;
1603;SDS011;795;49.296;11.348;2023-06-10T10:19:08;8.00;;;7.33;;
1603;SDS011;795;49.296;11.348;2023-06-10T10:21:49;6.80;;;6.30;;
1603;SDS011;795;49.296;11.348;2023-06-10T10:24:21;7.20;;;6.70;;
1603;SDS011;795;49.296;11.348;2023-06-10T10:26:58;6.63;;;5.90;;
1603;SDS011;795;49.296;11.348;2023-06-10T10:29:37;7.40;;;6.90;;
1603;SDS011;795;49.296;11.348;2023-06-10T10:32:06;6.77;;;6.27;;
1603;SDS011;795;49.296;11.348;2023-06-10T10:37:38;7.07;;;6.47;;
1603;SDS011;795;49.296;11.348;2023-06-10T10:40:06;6.67;;;6.17;;
1603;SDS011;795;49.296;11.348;2023-06-10T10:42:36;5.57;;;5.17;;
1603;SDS011;795;49.296;11.348;2023-06-10T10:45:06;6.20;;;5.60;;
1603;SDS011;795;49.296;11.348;2023-06-10T10:47:36;5.73;;;5.33;;
1603;SDS011;795;49.296;11.348;2023-06-10T10:50:15;6.23;;;5.83;;
1603;SDS011;795;49.296;11.348;2023-06-10T10:52:52;6.70;;;6.20;;
1603;SDS011;795;49.296;11.348;2023-06-10T10:55:25;6.70;;;6.20;;
1603;SDS011;795;49.296;11.348;2023-06-10T10:58:03;6.97;;;6.47;;
1603;SDS011;795;49.296;11.348;2023-06-10T11:00:37;5.17;;;4.80;;
1603;SDS011;795;49.296;11.348;2023-06-10T11:03:14;5.30;;;4.90;;
1603;SDS011;795;49.296;11.348;2023-06-10T11:05:47;5.57;;;5.17;;
1603;SDS011;795;49.296;11.348;2023-06-10T11:10:55;4.57;;;4.17;;
1603;SDS011;795;49.296;11.348;2023-06-10T11:13:22;4.50;;;4.20;;
1603;SDS011;795;49.296;11.348;2023-06-10T11:15:56;5.17;;;4.67;;
1603;SDS011;795;49.296;11.348;2023-06-10T11:18:34;5.40;;;5.10;;
1603;SDS011;795;49.296;11.348;2023-06-10T11:21:05;6.10;;;5.70;;
1603;SDS011;795;49.296;11.348;2023-06-10T11:23:34;5.50;;;5.10;;
1603;SDS011;795;49.296;11.348;2023-06-10T11:31:26;6.73;;;5.10;;
1603;SDS011;795;49.296;11.348;2023-06-10T11:34:02;4.50;;;4.10;;
1603;SDS011;795;49.296;11.348;2023-06-10T11:36:42;4.57;;;4.20;;
1603;SDS011;795;49.296;11.348;2023-06-10T11:39:12;4.43;;;4.13;;
1603;SDS011;795;49.296;11.348;2023-06-10T11:41:39;3.87;;;3.67;;
1603;SDS011;795;49.296;11.348;2023-06-10T11:44:07;4.37;;;4.07;;
1603;SDS011;795;49.296;11.348;2023-06-10T11:46:45;4.50;;;4.20;;
1603;SDS011;795;49.296;11.348;2023-06-10T11:49:15;4.80;;;4.50;;
1603;SDS011;795;49.296;11.348;2023-06-10T11:51:42;4.07;;;3.87;;
1603;SDS011;795;49.296;11.348;2023-06-10T11:54:16;4.00;;;3.80;;
1603;SDS011;795;49.296;11.348;2023-06-10T11:56:44;4.80;;;4.50;;
1603;SDS011;795;49.296;11.348;2023-06-10T11:59:12;4.30;;;4.00;;
1603;SDS011;795;49.296;11.348;2023-06-10T12:01:42;5.43;;;4.93;;
1603;SDS011;795;49.296;11.348;2023-06-10T12:04:13;4.17;;;3.87;;
1603;SDS011;795;49.296;11.348;2023-06-10T12:06:50;3.93;;;3.73;;
1603;SDS011;795;49.296;11.348;2023-06-10T12:09:24;4.80;;;4.50;;
1603;SDS011;795;49.296;11.348;2023-06-10T12:12:01;4.47;;;4.17;;
1603;SDS011;795;49.296;11.348;2023-06-10T12:20:01;5.43;;;5.03;;
1603;SDS011;795;49.296;11.348;2023-06-10T12:22:44;4.60;;;4.30;;
1603;SDS011;795;49.296;11.348;2023-06-10T12:25:11;4.50;;;4.20;;
1603;SDS011;795;49.296;11.348;2023-06-10T12:27:40;5.57;;;5.17;;
1603;SDS011;795;49.296;11.348;2023-06-10T12:30:19;5.30;;;4.90;;
1603;SDS011;795;49.296;11.348;2023-06-10T12:32:50;4.63;;;4.33;;
1603;SDS011;795;49.296;11.348;2023-06-10T12:35:19;4.93;;;4.53;;
1603;SDS011;795;49.296;11.348;2023-06-10T12:37:54;5.10;;;4.70;;
1603;SDS011;795;49.296;11.348;2023-06-10T12:40:33;5.10;;;4.80;;
1603;SDS011;795;49.296;11.348;2023-06-10T12:43:06;4.67;;;4.37;;
1603;SDS011;795;49.296;11.348;2023-06-10T12:45:34;4.63;;;4.33;;
1603;SDS011;795;49.296;11.348;2023-06-10T12:48:10;4.83;;;4.47;;
1603;SDS011;795;49.296;11.348;2023-06-10T12:50:52;5.93;;;4.43;;
1603;SDS011;795;49.296;11.348;2023-06-10T12:53:24;5.30;;;4.90;;
1603;SDS011;795;49.296;11.348;2023-06-10T12:55:55;5.30;;;4.90;;
1603;SDS011;795;49.296;11.348;2023-06-10T12:58:22;7.07;;;6.47;;
1603;SDS011;795;49.296;11.348;2023-06-10T13:00:50;5.07;;;4.57;;
1603;SDS011;795;49.296;11.348;2023-06-10T13:03:19;4.57;;;4.00;;
1603;SDS011;795;49.296;11.348;2023-06-10T13:05:46;5.20;;;4.80;;
1603;SDS011;795;49.296;11.348;2023-06-10T13:08:14;5.00;;;4.63;;
1603;SDS011;795;49.296;11.348;2023-06-10T13:10:41;4.80;;;4.50;;
1603;SDS011;795;49.296;11.348;2023-06-10T13:13:08;4.70;;;4.30;;
1603;SDS011;795;49.296;11.348;2023-06-10T13:15:36;4.30;;;4.00;;
1603;SDS011;795;49.296;11.348;2023-06-10T13:18:09;4.30;;;4.00;;
1603;SDS011;795;49.296;11.348;2023-06-10T13:20:36;5.80;;;5.40;;
1603;SDS011;795;49.296;11.348;2023-06-10T13:23:05;5.63;;;5.23;;
1603;SDS011;795;49.296;11.348;2023-06-10T13:25:32;5.57;;;5.13;;
1603;SDS011;795;49.296;11.348;2023-06-10T13:27:59;6.60;;;6.13;;
1603;SDS011;795;49.296;11.348;2023-06-10T13:30:26;6.30;;;5.80;;
1603;SDS011;795;49.296;11.348;2023-06-10T13:32:53;5.87;;;5.47;;
1603;SDS011;795;49.296;11.348;2023-06-10T13:35:20;5.23;;;4.83;;
1603;SDS011;795;49.296;11.348;2023-06-10T13:37:47;6.00;;;5.60;;
1603;SDS011;795;49.296;11.348;2023-06-10T13:40:14;6.67;;;6.07;;
1603;SDS011;795;49.296;11.348;2023-06-10T13:42:41;6.80;;;6.20;;
1603;SDS011;795;49.296;11.348;2023-06-10T13:45:08;5.43;;;5.00;;
1603;SDS011;795;49.296;11.348;2023-06-10T13:47:37;6.10;;;5.60;;
1603;SDS011;795;49.296;11.348;2023-06-10T13:50:05;5.50;;;5.00;;
1603;SDS011;795;49.296;11.348;2023-06-10T13:52:33;5.80;;;5.40;;
1603;SDS011;795;49.296;11.348;2023-06-10T13:55:00;5.43;;;4.70;;
1603;SDS011;795;49.296;11.348;2023-06-10T13:57:27;5.30;;;4.90;;
1603;SDS011;795;49.296;11.348;2023-06-10T13:59:54;14.07;;;7.27;;
1603;SDS011;795;49.296;11.348;2023-06-10T14:02:22;8.13;;;5.90;;
1603;SDS011;795;49.296;11.348;2023-06-10T14:04:49;5.20;;;4.80;;
1603;SDS011;795;49.296;11.348;2023-06-10T14:07:16;10.37;;;7.20;;
1603;SDS011;795;49.296;11.348;2023-06-10T14:09:43;8.83;;;5.77;;
1603;SDS011;795;49.296;11.348;2023-06-10T14:12:11;11.70;;;6.57;;
1603;SDS011;795;49.296;11.348;2023-06-10T14:14:38;7.17;;;6.40;;
1603;SDS011;795;49.296;11.348;2023-06-10T14:17:06;7.13;;;5.97;;
1603;SDS011;795;49.296;11.348;2023-06-10T14:19:33;6.27;;;5.77;;
1603;SDS011;795;49.296;11.348;2023-06-10T14:22:00;7.07;;;6.47;;
1603;SDS011;795;49.296;11.348;2023-06-10T14:24:26;6.90;;;6.30;;
1603;SDS011;795;49.296;11.348;2023-06-10T14:26:54;7.27;;;6.77;;
1603;SDS011;795;49.296;11.348;2023-06-10T14:29:21;7.40;;;6.80;;
1603;SDS011;795;49.296;11.348;2023-06-10T14:31:48;8.67;;;7.93;;
1603;SDS011;795;49.296;11.348;2023-06-10T14:34:15;8.33;;;7.53;;
1603;SDS011;795;49.296;11.348;2023-06-10T14:36:42;7.80;;;6.97;;
1603;SDS011;795;49.296;11.348;2023-06-10T14:39:09;9.93;;;7.17;;
1603;SDS011;795;49.296;11.348;2023-06-10T14:41:36;7.00;;;6.40;;
1603;SDS011;795;49.296;11.348;2023-06-10T14:44:03;7.20;;;6.50;;
1603;SDS011;795;49.296;11.348;2023-06-10T14:46:30;8.73;;;7.10;;
1603;SDS011;795;49.296;11.348;2023-06-10T14:48:57;11.60;;;7.27;;
1603;SDS011;795;49.296;11.348;2023-06-10T14:51:25;9.87;;;8.87;;
1603;SDS011;795;49.296;11.348;2023-06-10T14:53:52;7.57;;;6.87;;
1603;SDS011;795;49.296;11.348;2023-06-10T14:56:19;6.83;;;6.23;;
1603;SDS011;795;49.296;11.348;2023-06-10T14:58:46;8.00;;;7.20;;
1603;SDS011;795;49.296;11.348;2023-06-10T15:01:13;6.30;;;5.77;;
1603;SDS011;795;49.296;11.348;2023-06-10T15:03:40;5.33;;;4.90;;
1603;SDS011;795;49.296;11.348;2023-06-10T15:06:07;3.93;;;3.73;;
1603;SDS011;795;49.296;11.348;2023-06-10T15:08:34;3.60;;;3.40;;
1603;SDS011;795;49.296;11.348;2023-06-10T15:11:01;3.67;;;3.47;;
1603;SDS011;795;49.296;11.348;2023-06-10T15:13:28;4.27;;;3.70;;
1603;SDS011;795;49.296;11.348;2023-06-10T15:15:55;4.50;;;4.20;;
1603;SDS011;795;49.296;11.348;2023-06-10T15:18:22;4.07;;;3.77;;
1603;SDS011;795;49.296;11.348;2023-06-10T15:20:49;4.00;;;3.70;;
1603;SDS011;795;49.296;11.348;2023-06-10T15:23:16;3.33;;;3.13;;
1603;SDS011;795;49.296;11.348;2023-06-10T15:25:43;3.50;;;3.20;;
1603;SDS011;795;49.296;11.348;2023-06-10T15:28:11;4.03;;;3.70;;
1603;SDS011;795;49.296;11.348;2023-06-10T15:30:38;3.70;;;3.40;;
1603;SDS011;795;49.296;11.348;2023-06-10T15:33:05;3.03;;;2.83;;
1603;SDS011;795;49.296;11.348;2023-06-10T15:35:33;3.10;;;2.90;;
1603;SDS011;795;49.296;11.348;2023-06-10T15:38:00;3.30;;;3.10;;
1603;SDS011;795;49.296;11.348;2023-06-10T15:40:27;3.80;;;3.50;;
1603;SDS011;795;49.296;11.348;2023-06-10T15:42:54;4.47;;;4.17;;
1603;SDS011;795;49.296;11.348;2023-06-10T15:45:21;4.97;;;4.57;;
1603;SDS011;795;49.296;11.348;2023-06-10T15:47:48;4.70;;;4.30;;
1603;SDS011;795;49.296;11.348;2023-06-10T15:50:15;6.47;;;5.90;;
1603;SDS011;795;49.296;11.348;2023-06-10T15:52:42;5.70;;;5.30;;
1603;SDS011;795;49.296;11.348;2023-06-10T15:55:09;6.27;;;5.77;;